Time;durP1;ratioP1;P1;durP2;ratioP2;P2;SDS_P1;SDS_P2;PMS_P1;PMS_P2;Temp;Humidity;BMP_temperature;BMP_pressure;BME280_temperature;BME280_humidity;BME280_pressure;Samples;Min_cycle;Max_cycle;Signal;HPM_P1;HPM_P2
2022/11/21 00:00:32;;;;;;;33.90;13.30;;;;;;;-1.98;96.81;98829.77;105765;1295;66472;-79
2022/11/21 00:03:21;;;;;;;34.50;14.60;;;;;;;-1.94;96.73;98825.01;105833;1295;71442;-77
2022/11/21 00:06:08;;;;;;;35.80;16.30;;;;;;;-1.90;96.60;98815.81;105930;1292;57177;-79
2022/11/21 00:08:56;;;;;;;34.90;15.40;;;;;;;-1.88;96.48;98814.14;105176;1292;1002224;-79
2022/11/21 00:11:44;;;;;;;34.70;15.80;;;;;;;-1.83;96.28;98816.88;105790;1295;72926;-80
2022/11/21 00:14:33;;;;;;;33.90;16.10;;;;;;;-1.78;96.23;98818.05;105238;1292;1002403;-79
2022/11/21 00:17:21;;;;;;;31.00;14.60;;;;;;;-1.75;96.26;98818.43;105750;1292;72377;-79
2022/11/21 00:20:09;;;;;;;28.00;11.90;;;;;;;-1.73;95.94;98827.00;105942;1289;57334;-77
2022/11/21 00:22:57;;;;;;;33.20;13.70;;;;;;;-1.72;95.93;98828.36;105844;1292;61625;-78
2022/11/21 00:25:44;;;;;;;26.30;11.60;;;;;;;-1.72;95.92;98832.52;106101;1292;72056;-79
2022/11/21 00:28:34;;;;;;;30.70;14.10;;;;;;;-1.73;95.73;98838.31;105410;1286;1002034;-76
2022/11/21 00:31:22;;;;;;;30.20;13.60;;;;;;;-1.73;95.70;98844.04;106122;1284;71205;-81
2022/11/21 00:34:11;;;;;;;26.80;12.50;;;;;;;-1.73;95.29;98832.93;105869;1298;58471;-82
2022/11/21 00:36:58;;;;;;;28.70;13.10;;;;;;;-1.69;95.47;98841.45;105723;1295;61094;-76
2022/11/21 00:39:47;;;;;;;26.00;11.50;;;;;;;-1.70;94.08;98850.16;105652;1287;72978;-78
2022/11/21 00:42:35;;;;;;;20.30;9.50;;;;;;;-1.71;93.22;98855.61;105621;1295;67764;-80
2022/11/21 00:45:23;;;;;;;20.30;8.30;;;;;;;-1.73;92.67;98852.73;105734;1293;72722;-81
2022/11/21 00:48:11;;;;;;;20.50;9.90;;;;;;;-1.73;92.11;98858.13;105506;1298;58755;-80
2022/11/21 00:51:00;;;;;;;22.90;10.10;;;;;;;-1.69;92.17;98865.83;105339;1297;59001;-80
2022/11/21 00:53:47;;;;;;;25.10;10.90;;;;;;;-1.69;92.40;98869.11;105399;1300;72987;-78
2022/11/21 00:56:35;;;;;;;21.30;8.90;;;;;;;-1.65;92.51;98867.52;104736;1298;1002674;-76
2022/11/21 00:59:23;;;;;;;17.20;6.50;;;;;;;-1.61;92.57;98864.53;105559;1298;73477;-76
2022/11/21 01:02:12;;;;;;;21.80;9.10;;;;;;;-1.57;92.45;98862.10;105585;1297;58167;-78
2022/11/21 01:05:00;;;;;;;22.10;9.70;;;;;;;-1.54;92.27;98859.00;104836;1301;1002211;-76
2022/11/21 01:07:48;;;;;;;24.20;9.90;;;;;;;-1.52;91.92;98859.28;105591;1295;70484;-78
2022/11/21 01:10:36;;;;;;;21.70;9.30;;;;;;;-1.54;91.46;98852.73;105572;1298;66407;-77
2022/11/21 01:13:23;;;;;;;17.20;7.50;;;;;;;-1.55;91.42;98853.84;105564;1298;72401;-78
2022/11/21 01:16:25;;;;;;;20.80;10.50;;;;;;;-1.58;90.57;98849.64;105571;1301;57345;-77
2022/11/21 01:19:12;;;;;;;23.20;9.70;;;;;;;-1.57;90.90;98847.30;105570;1295;61479;-77
2022/11/21 01:22:00;;;;;;;21.90;9.80;;;;;;;-1.53;91.25;98844.88;105782;1295;72993;-77
2022/11/21 01:24:48;;;;;;;17.40;7.70;;;;;;;-1.51;91.41;98836.77;105596;1296;68698;-78
2022/11/21 01:27:36;;;;;;;21.30;9.80;;;;;;;-1.50;91.23;98828.71;105689;1294;71273;-78
2022/11/21 01:30:23;;;;;;;18.20;8.70;;;;;;;-1.48;90.99;98828.66;105498;1299;58472;-76
2022/11/21 01:33:11;;;;;;;18.00;7.40;;;;;;;-1.49;90.69;98825.38;105759;1295;60423;-76
2022/11/21 01:36:20;;;;;;;22.50;10.30;;;;;;;-1.52;90.23;98827.10;105870;1292;72956;-76
2022/11/21 01:39:10;;;;;;;20.80;10.20;;;;;;;-1.52;90.40;98813.88;105943;1298;69019;-77
2022/11/21 01:41:58;;;;;;;20.90;10.00;;;;;;;-1.49;90.20;98807.80;105815;1300;73496;-77
2022/11/21 01:44:53;;;;;;;21.50;11.10;;;;;;;-1.48;90.02;98809.13;105920;1292;58328;-76
2022/11/21 01:47:40;;;;;;;23.00;9.80;;;;;;;-1.49;90.21;98813.71;105744;1294;59048;-77
2022/11/21 01:50:28;;;;;;;22.90;10.20;;;;;;;-1.49;90.02;98825.73;105192;1300;1002514;-77
2022/11/21 01:53:16;;;;;;;21.80;9.70;;;;;;;-1.50;90.16;98833.92;105928;1282;67532;-77
2022/11/21 01:56:05;;;;;;;20.20;9.50;;;;;;;-1.49;89.97;98832.52;105818;1293;73526;-77
2022/11/21 01:58:57;;;;;;;24.90;10.50;;;;;;;-1.49;90.29;98836.33;105816;1292;57296;-76
2022/11/21 02:01:48;;;;;;;20.20;8.60;;;;;;;-1.49;90.18;98845.55;105943;1285;58684;-77
2022/11/21 02:04:40;;;;;;;24.00;10.30;;;;;;;-1.53;90.26;98854.08;105984;1298;73041;-76
2022/11/21 02:07:34;;;;;;;24.70;11.20;;;;;;;-1.56;90.55;98848.82;105101;1292;1002073;-77
2022/11/21 02:10:22;;;;;;;26.10;10.90;;;;;;;-1.57;90.70;98845.05;105924;1291;73773;-77
2022/11/21 02:13:13;;;;;;;24.70;10.60;;;;;;;-1.58;90.60;98849.63;105014;1289;1002297;-75
2022/11/21 02:16:02;;;;;;;23.10;10.60;;;;;;;-1.57;90.88;98845.41;105944;1291;60012;-77
2022/11/21 02:18:49;;;;;;;22.50;9.50;;;;;;;-1.55;90.71;98842.18;105944;1293;72435;-77
2022/11/21 02:22:01;;;;;;;21.50;8.90;;;;;;;-1.54;90.39;98840.91;105821;1299;68954;-78
2022/11/21 02:25:14;;;;;;;22.90;10.40;;;;;;;-1.54;90.76;98835.20;105812;1291;72438;-76
2022/11/21 02:28:08;;;;;;;22.70;10.10;;;;;;;-1.58;90.44;98822.16;105922;1292;57489;-76
2022/11/21 02:30:56;;;;;;;24.20;10.00;;;;;;;-1.59;90.70;98820.82;105751;1288;60726;-77
2022/11/21 02:33:44;;;;;;;24.90;10.50;;;;;;;-1.59;90.70;98819.22;105907;1291;72780;-76
2022/11/21 02:36:44;;;;;;;25.60;9.80;;;;;;;-1.61;90.49;98817.55;105193;1291;1002467;-75
2022/11/21 02:39:36;;;;;;;21.80;9.60;;;;;;;-1.61;90.62;98816.88;105063;1296;1015058;-77
2022/11/21 02:42:32;;;;;;;19.30;9.10;;;;;;;-1.60;90.77;98822.77;105943;1292;57380;-79
2022/11/21 02:45:28;;;;;;;21.80;10.00;;;;;;;-1.60;90.78;98826.38;105775;1286;58920;-79
2022/11/21 02:48:16;;;;;;;22.60;9.80;;;;;;;-1.57;90.89;98824.70;105940;1292;72745;-78
2022/11/21 02:51:04;;;;;;;23.40;9.20;;;;;;;-1.55;90.92;98822.66;105686;1292;65305;-79
2022/11/21 02:53:52;;;;;;;25.10;10.70;;;;;;;-1.55;90.89;98827.04;105752;1289;72557;-79
2022/11/21 02:56:39;;;;;;;22.90;9.70;;;;;;;-1.55;90.85;98827.03;105694;1299;57144;-77
2022/11/21 02:59:27;;;;;;;23.10;10.40;;;;;;;-1.52;91.14;98831.77;105848;1284;58659;-78
2022/11/21 03:02:15;;;;;;;22.00;9.30;;;;;;;-1.52;91.15;98833.34;105524;1296;72123;-78
2022/11/21 03:05:06;;;;;;;22.80;9.60;;;;;;;-1.54;91.13;98831.68;105513;1299;68214;-78
2022/11/21 03:07:53;;;;;;;23.30;10.60;;;;;;;-1.56;91.23;98829.52;105554;1303;71028;-78
2022/11/21 03:10:41;;;;;;;24.00;11.00;;;;;;;-1.56;91.49;98833.70;105520;1298;58504;-79
2022/11/21 03:13:29;;;;;;;25.10;11.70;;;;;;;-1.53;91.52;98833.58;105535;1296;57766;-78
2022/11/21 03:16:17;;;;;;;26.80;11.00;;;;;;;-1.54;91.59;98842.30;105645;1294;74288;-76
2022/11/21 03:19:04;;;;;;;26.40;10.40;;;;;;;-1.56;91.63;98844.84;105647;1303;67619;-76
2022/11/21 03:21:53;;;;;;;24.10;10.60;;;;;;;-1.59;92.12;98853.34;105617;1301;73651;-76
2022/11/21 03:24:40;;;;;;;27.70;12.10;;;;;;;-1.61;92.28;98853.59;105488;1299;59005;-80
2022/11/21 03:27:28;;;;;;;26.40;10.70;;;;;;;-1.60;92.33;98858.77;105558;1291;58798;-78
2022/11/21 03:30:16;;;;;;;22.80;9.00;;;;;;;-1.61;92.65;98860.71;105542;1287;73050;-79
2022/11/21 03:33:04;;;;;;;25.90;11.70;;;;;;;-1.60;92.90;98869.05;105481;1296;66820;-78
2022/11/21 03:35:51;;;;;;;23.90;10.40;;;;;;;-1.62;93.12;98870.67;105695;1291;70807;-76
2022/11/21 03:38:39;;;;;;;29.10;13.70;;;;;;;-1.64;93.19;98871.81;105800;1279;57198;-77
2022/11/21 03:41:30;;;;;;;30.80;13.10;;;;;;;-1.64;93.60;98871.66;105961;1291;60110;-77
2022/11/21 03:44:18;;;;;;;27.70;11.10;;;;;;;-1.66;93.89;98872.08;105110;1284;1002014;-79
2022/11/21 03:47:05;;;;;;;32.10;12.50;;;;;;;-1.66;93.90;98870.88;105011;1292;1003066;-80
2022/11/21 03:49:53;;;;;;;31.30;13.20;;;;;;;-1.66;94.12;98872.80;105763;1292;71272;-78
2022/11/21 03:52:41;;;;;;;33.10;12.90;;;;;;;-1.65;94.35;98875.84;105757;1287;57127;-79
2022/11/21 03:55:29;;;;;;;29.40;11.50;;;;;;;-1.65;94.38;98878.64;105659;1292;58777;-79
2022/11/21 03:58:17;;;;;;;34.00;13.10;;;;;;;-1.67;94.60;98882.42;105837;1295;71381;-78
2022/11/21 04:01:05;;;;;;;34.90;13.40;;;;;;;-1.69;94.54;98880.60;105735;1292;67674;-77
2022/11/21 04:03:53;;;;;;;35.00;13.20;;;;;;;-1.69;94.54;98878.14;105632;1291;72859;-78
2022/11/21 04:06:40;;;;;;;34.80;13.50;;;;;;;-1.68;94.96;98881.23;105737;1284;58594;-77
2022/11/21 04:09:28;;;;;;;31.20;11.90;;;;;;;-1.66;94.85;98877.83;105778;1292;59082;-76
2022/11/21 04:12:16;;;;;;;29.90;11.30;;;;;;;-1.64;94.64;98886.41;105696;1293;72960;-77
2022/11/21 04:15:05;;;;;;;34.80;12.80;;;;;;;-1.65;94.77;98885.13;105822;1286;67593;-79
2022/11/21 04:17:59;;;;;;;36.20;9.00;;;;;;;-1.69;95.16;98879.36;105790;1291;70978;-79
2022/11/21 04:20:48;;;;;;;37.90;16.30;;;;;;;-1.70;95.22;98880.81;105746;1289;58484;-77
2022/11/21 04:23:38;;;;;;;34.60;13.70;;;;;;;-1.70;95.38;98879.39;105805;1287;60305;-79
2022/11/21 04:26:26;;;;;;;32.60;12.80;;;;;;;-1.67;95.35;98880.50;105696;1293;73024;-79
2022/11/21 04:29:13;;;;;;;31.20;13.40;;;;;;;-1.68;95.28;98881.59;105781;1292;68641;-78
2022/11/21 04:32:01;;;;;;;34.80;13.70;;;;;;;-1.66;95.12;98877.34;105955;1291;71186;-75
2022/11/21 04:34:49;;;;;;;31.40;12.30;;;;;;;-1.66;95.09;98874.02;105914;1292;57175;-77
2022/11/21 04:37:38;;;;;;;29.40;11.40;;;;;;;-1.65;95.12;98872.77;105750;1295;60516;-78
2022/11/21 04:40:25;;;;;;;31.50;13.40;;;;;;;-1.69;94.90;98875.71;105190;1292;1002177;-77
2022/11/21 04:43:13;;;;;;;35.70;13.40;;;;;;;-1.67;94.79;98871.80;105222;1285;1002082;-77
2022/11/21 04:46:01;;;;;;;32.40;12.60;;;;;;;-1.68;94.47;98869.41;105170;1292;1015264;-78
2022/11/21 04:48:48;;;;;;;35.60;13.50;;;;;;;-1.71;94.07;98867.44;105892;1300;58119;-78
2022/11/21 04:51:36;;;;;;;34.60;13.90;;;;;;;-1.71;94.32;98859.10;105195;1285;1002368;-80
2022/11/21 04:54:24;;;;;;;28.80;12.70;;;;;;;-1.71;93.99;98861.02;105797;1296;73023;-85
2022/11/21 04:57:12;;;;;;;34.80;13.70;;;;;;;-1.72;93.64;98857.93;105740;1293;67557;-80
2022/11/21 05:00:00;;;;;;;33.10;13.20;;;;;;;-1.72;93.18;98854.62;105918;1292;71009;-81
2022/11/21 05:02:48;;;;;;;33.30;13.20;;;;;;;-1.72;92.94;98850.45;105724;1292;57278;-78
2022/11/21 05:05:36;;;;;;;26.50;11.20;;;;;;;-1.70;93.20;98843.06;105923;1292;60039;-79
2022/11/21 05:08:24;;;;;;;31.60;13.20;;;;;;;-1.71;92.61;98840.63;105931;1292;73023;-79
2022/11/21 05:14:18;;;;;;;30.30;12.90;;;;;;;-1.76;92.47;98831.83;105972;1291;71349;-79
2022/11/21 05:17:05;;;;;;;31.00;12.40;;;;;;;-1.75;92.52;98835.77;106086;1284;58430;-78
2022/11/21 05:19:53;;;;;;;32.10;12.40;;;;;;;-1.75;92.32;98835.99;105908;1291;61136;-81
2022/11/21 05:22:41;;;;;;;29.30;11.60;;;;;;;-1.76;92.09;98842.80;105913;1291;73163;-79
2022/11/21 05:25:29;;;;;;;27.90;13.50;;;;;;;-1.79;91.56;98843.98;105829;1292;67896;-79
2022/11/21 05:28:16;;;;;;;34.10;13.40;;;;;;;-1.82;91.76;98849.37;105885;1292;73877;-80
2022/11/21 05:31:04;;;;;;;31.10;12.40;;;;;;;-1.83;91.59;98844.88;105885;1292;58784;-79
2022/11/21 05:33:52;;;;;;;26.70;11.20;;;;;;;-1.86;91.59;98840.67;105904;1292;60107;-78
2022/11/21 05:36:40;;;;;;;28.50;12.00;;;;;;;-1.85;91.49;98843.61;105184;1292;1002362;-78
2022/11/21 05:39:27;;;;;;;24.90;10.50;;;;;;;-1.86;90.18;98846.21;105912;1292;67026;-80
2022/11/21 05:42:15;;;;;;;23.10;10.50;;;;;;;-1.86;90.06;98846.60;105173;1293;1002424;-81
2022/11/21 05:45:03;;;;;;;26.70;12.20;;;;;;;-1.90;89.85;98842.73;105910;1286;57300;-76
2022/11/21 05:47:51;;;;;;;25.00;11.00;;;;;;;-1.92;90.04;98843.56;105783;1291;192999;-78
2022/11/21 05:50:39;;;;;;;25.30;11.40;;;;;;;-1.94;89.89;98842.60;105874;1292;70438;-79
2022/11/21 05:53:26;;;;;;;25.70;10.50;;;;;;;-1.96;89.76;98842.33;105880;1292;68653;-77
2022/11/21 05:56:17;;;;;;;22.60;10.10;;;;;;;-1.94;89.62;98846.96;105899;1286;72428;-79
2022/11/21 05:59:05;;;;;;;23.20;9.70;;;;;;;-1.97;88.80;98853.86;105887;1292;58001;-78
2022/11/21 06:04:59;;;;;;;21.10;9.10;;;;;;;-2.07;88.01;98852.02;105789;1295;71852;-78
2022/11/21 06:07:46;;;;;;;18.70;7.80;;;;;;;-2.12;87.68;98849.31;105899;1292;67780;-79
2022/11/21 06:10:35;;;;;;;22.10;9.40;;;;;;;-2.16;87.66;98856.12;105905;1291;71420;-79
2022/11/21 06:13:23;;;;;;;24.50;10.10;;;;;;;-2.16;88.02;98859.57;105131;1293;1002160;-79
2022/11/21 06:16:15;;;;;;;23.00;9.50;;;;;;;-2.15;88.16;98869.45;105126;1287;1002651;-83
2022/11/21 06:19:03;;;;;;;25.50;10.40;;;;;;;-2.16;88.51;98869.85;105682;1287;72949;-79
2022/11/21 06:21:51;;;;;;;19.70;7.80;;;;;;;-2.13;88.88;98870.76;105751;1292;67743;-79
2022/11/21 06:24:39;;;;;;;25.30;11.40;;;;;;;-2.14;88.75;98875.49;105641;1286;73811;-79
2022/11/21 06:27:28;;;;;;;27.90;12.10;;;;;;;-2.13;88.95;98874.23;105880;1284;57947;-78
2022/11/21 06:30:16;;;;;;;25.50;10.80;;;;;;;-2.11;88.88;98872.39;105885;1285;60406;-77
2022/11/21 06:33:08;;;;;;;25.70;10.70;;;;;;;-2.15;88.45;98871.88;105889;1294;72727;-78
2022/11/21 06:35:56;;;;;;;29.40;12.00;;;;;;;-2.19;88.61;98870.48;105038;1284;1002507;-78
2022/11/21 06:38:44;;;;;;;27.20;10.40;;;;;;;-2.20;88.48;98868.27;105086;1295;1002582;-77
2022/11/21 06:41:32;;;;;;;27.30;11.50;;;;;;;-2.21;88.13;98868.15;105850;1292;58511;-77
2022/11/21 06:44:20;;;;;;;24.40;10.90;;;;;;;-2.23;88.19;98869.42;105863;1292;61253;-78
2022/11/21 06:47:08;;;;;;;27.20;10.80;;;;;;;-2.22;88.08;98871.84;105814;1288;72726;-80
2022/11/21 06:49:55;;;;;;;26.80;10.70;;;;;;;-2.20;88.12;98870.70;105137;1285;1002614;-77
2022/11/21 06:52:43;;;;;;;25.70;11.70;;;;;;;-2.18;88.07;98874.43;105881;1292;71068;-77
2022/11/21 06:55:30;;;;;;;27.10;12.30;;;;;;;-2.17;88.09;98878.20;105848;1285;58167;-79
2022/11/21 06:58:18;;;;;;;25.80;11.70;;;;;;;-2.16;87.84;98879.89;105858;1292;60230;-78
2022/11/21 07:01:09;;;;;;;23.70;9.80;;;;;;;-2.15;87.26;98884.73;105711;1287;74102;-80
2022/11/21 07:03:57;;;;;;;26.80;10.90;;;;;;;-2.15;87.59;98880.56;105180;1285;1002538;-79
2022/11/21 07:06:44;;;;;;;27.30;10.90;;;;;;;-2.13;87.65;98882.91;105146;1284;1002720;-77
2022/11/21 07:09:34;;;;;;;22.20;10.00;;;;;;;-2.11;87.60;98884.92;105871;1298;57206;-77
2022/11/21 07:15:32;;;;;;;25.10;11.20;;;;;;;-2.14;87.59;98889.74;105992;1285;73085;-77
2022/11/21 07:18:21;;;;;;;26.20;11.30;;;;;;;-2.13;87.78;98890.05;105760;1295;67616;-79
2022/11/21 07:21:09;;;;;;;26.00;11.00;;;;;;;-2.12;87.49;98887.89;105849;1291;72474;-78
2022/11/21 07:23:57;;;;;;;25.00;10.80;;;;;;;-2.09;87.85;98889.70;105846;1285;57300;-77
2022/11/21 07:26:45;;;;;;;28.30;11.50;;;;;;;-2.07;87.81;98885.44;105742;1295;58435;-78
2022/11/21 07:29:32;;;;;;;24.70;10.70;;;;;;;-2.03;87.76;98888.73;105142;1292;1002282;-79
2022/11/21 07:32:20;;;;;;;26.20;11.40;;;;;;;-1.99;87.97;98881.27;104976;1294;1002297;-76
2022/11/21 07:35:10;;;;;;;26.20;12.50;;;;;;;-1.94;87.95;98889.88;105841;1288;73712;-77
2022/11/21 07:37:58;;;;;;;25.20;12.10;;;;;;;-1.91;87.74;98889.56;105852;1284;57182;-78
2022/11/21 07:40:46;;;;;;;28.60;11.80;;;;;;;-1.91;87.91;98889.40;105719;1288;61648;-79
2022/11/21 07:43:33;;;;;;;22.70;9.30;;;;;;;-1.92;88.04;98885.10;105853;1293;73008;-78
2022/11/21 07:46:21;;;;;;;28.20;13.50;;;;;;;-1.88;88.29;98888.75;105692;1298;67549;-78
2022/11/21 07:49:09;;;;;;;27.50;12.40;;;;;;;-1.90;88.40;98884.83;105840;1292;72557;-79
2022/11/21 07:51:57;;;;;;;26.40;12.50;;;;;;;-1.89;88.32;98884.08;105849;1285;59759;-77
2022/11/21 07:54:44;;;;;;;25.00;11.70;;;;;;;-1.86;88.41;98883.46;105870;1287;58715;-77
2022/11/21 07:57:33;;;;;;;27.10;13.10;;;;;;;-1.82;88.32;98882.94;105718;1295;72996;-78
2022/11/21 08:00:21;;;;;;;29.60;13.70;;;;;;;-1.77;88.37;98879.38;105857;1288;68886;-77
2022/11/21 08:03:13;;;;;;;26.80;12.90;;;;;;;-1.72;88.25;98879.85;105849;1285;72463;-78
2022/11/21 08:06:03;;;;;;;29.30;14.00;;;;;;;-1.64;88.21;98881.08;105847;1286;58729;-77
2022/11/21 08:08:53;;;;;;;29.90;14.80;;;;;;;-1.58;87.88;98879.89;105846;1292;60016;-78
2022/11/21 08:11:41;;;;;;;30.70;14.60;;;;;;;-1.54;87.78;98877.96;105679;1293;73895;-78
2022/11/21 08:14:28;;;;;;;27.90;13.10;;;;;;;-1.48;87.57;98882.24;105852;1292;67777;-77
2022/11/21 08:17:17;;;;;;;27.50;11.50;;;;;;;-1.43;87.57;98882.64;105846;1291;70742;-78
2022/11/21 08:20:06;;;;;;;29.80;13.80;;;;;;;-1.35;87.33;98880.77;105848;1292;58692;-78
2022/11/21 08:22:54;;;;;;;31.00;14.00;;;;;;;-1.26;87.13;98872.83;105693;1285;59196;-77
2022/11/21 08:25:42;;;;;;;30.80;14.20;;;;;;;-1.15;86.75;98872.33;105843;1298;73183;-78
2022/11/21 08:28:30;;;;;;;32.30;15.00;;;;;;;-1.02;86.42;98873.94;105866;1292;66226;-78
2022/11/21 08:31:17;;;;;;;34.40;14.40;;;;;;;-0.92;85.36;98879.17;105848;1292;72360;-79
2022/11/21 08:34:05;;;;;;;28.40;13.60;;;;;;;-0.82;85.13;98877.98;105876;1292;58490;-78
2022/11/21 08:37:01;;;;;;;27.30;12.30;;;;;;;-0.80;84.39;98882.42;105906;1300;60279;-80
2022/11/21 08:39:51;;;;;;;29.40;13.60;;;;;;;-0.82;84.22;98886.35;105877;1278;73008;-76
2022/11/21 08:42:39;;;;;;;27.70;13.00;;;;;;;-0.89;84.11;98888.98;105722;1286;66176;-77
2022/11/21 08:45:27;;;;;;;32.50;14.40;;;;;;;-0.92;84.10;98885.98;105839;1292;72547;-77
2022/11/21 08:48:14;;;;;;;28.80;12.90;;;;;;;-0.91;84.19;98892.52;105840;1292;59721;-77
2022/11/21 08:51:02;;;;;;;26.90;12.30;;;;;;;-0.94;83.83;98893.02;105864;1288;60303;-77
2022/11/21 08:53:50;;;;;;;33.10;14.70;;;;;;;-0.91;84.08;98890.30;105861;1290;72003;-77
2022/11/21 08:56:38;;;;;;;32.60;14.20;;;;;;;-0.74;83.92;98893.81;105870;1291;68088;-78
2022/11/21 08:59:26;;;;;;;29.40;12.30;;;;;;;-0.47;83.37;98895.05;105849;1292;72485;-76
2022/11/21 09:02:13;;;;;;;28.50;12.60;;;;;;;-0.14;81.93;98898.60;105853;1284;57189;-78
2022/11/21 09:05:01;;;;;;;29.10;13.00;;;;;;;0.25;80.03;98896.55;105741;1295;60192;-77
2022/11/21 09:07:56;;;;;;;28.30;13.80;;;;;;;0.80;78.96;98896.32;105840;1292;72803;-78
2022/11/21 09:10:44;;;;;;;30.20;14.40;;;;;;;1.71;75.42;98889.85;105710;1292;66272;-79
2022/11/21 09:13:33;;;;;;;28.40;14.30;;;;;;;2.58;72.94;98887.70;105830;1295;72569;-76
2022/11/21 09:19:27;;;;;;;24.20;12.80;;;;;;;3.64;66.87;98890.58;105845;1286;61493;-79
2022/11/21 09:22:15;;;;;;;26.60;12.90;;;;;;;4.89;66.00;98890.11;105829;1292;73311;-78
2022/11/21 09:25:04;;;;;;;24.90;12.80;;;;;;;5.65;60.61;98884.50;105847;1292;66201;-77
2022/11/21 09:27:51;;;;;;;23.90;12.40;;;;;;;6.25;57.52;98879.94;105868;1292;71187;-77
2022/11/21 09:30:41;;;;;;;22.80;12.10;;;;;;;7.06;56.03;98874.38;105838;1292;57211;-77
2022/11/21 09:33:28;;;;;;;21.60;11.60;;;;;;;7.96;51.16;98872.83;105830;1285;60149;-76
2022/11/21 09:36:16;;;;;;;21.00;11.30;;;;;;;8.85;49.83;98872.18;105706;1294;72892;-77
2022/11/21 09:39:04;;;;;;;20.00;12.20;;;;;;;9.98;47.40;98862.82;105837;1286;68687;-77
2022/11/21 09:41:58;;;;;;;19.50;11.70;;;;;;;11.03;44.84;98857.73;105723;1292;71921;-77
2022/11/21 09:45:12;;;;;;;17.10;10.40;;;;;;;12.09;43.67;98853.55;105844;1286;57212;-77
2022/11/21 09:48:07;;;;;;;20.00;10.80;;;;;;;11.95;42.39;98858.42;105848;1292;59959;-76
2022/11/21 09:51:03;;;;;;;17.60;10.70;;;;;;;12.78;39.51;98859.30;105689;1292;72722;-77
2022/11/21 09:54:02;;;;;;;19.50;11.10;;;;;;;12.97;37.77;98858.04;105714;1292;67818;-77
2022/11/21 09:56:52;;;;;;;17.30;10.70;;;;;;;12.86;37.03;98854.38;105839;1284;72453;-77
2022/11/21 09:59:40;;;;;;;21.20;12.30;;;;;;;13.40;37.03;98858.22;105661;1295;59227;-77
2022/11/21 10:02:27;;;;;;;18.70;11.50;;;;;;;13.96;34.61;98854.81;105722;1292;61109;-75
2022/11/21 10:05:15;;;;;;;18.00;11.90;;;;;;;14.70;34.72;98849.77;105845;1292;71968;-77
2022/11/21 10:08:34;;;;;;;19.30;11.70;;;;;;;15.38;34.22;98852.77;105726;1288;67702;-77
2022/11/21 10:12:38;;;;;;;19.30;11.20;;;;;;;15.42;32.13;98855.80;105640;1279;72813;-76
2022/11/21 10:15:47;;;;;;;19.20;11.50;;;;;;;14.44;33.09;98857.84;105268;1301;58058;-75
2022/11/21 10:19:14;;;;;;;23.00;13.10;;;;;;;13.40;33.86;98862.14;105270;1301;61700;-76
2022/11/21 10:22:52;;;;;;;18.50;10.80;;;;;;;14.13;33.72;98861.48;105264;1301;74101;-75
2022/11/21 10:25:49;;;;;;;20.50;13.20;;;;;;;13.86;32.56;98869.95;105255;1293;68020;-75
2022/11/21 10:28:45;;;;;;;26.50;15.50;;;;;;;12.85;33.56;98870.83;105169;1301;72738;-77
2022/11/21 10:31:38;;;;;;;28.50;15.90;;;;;;;11.51;36.28;98873.67;105221;1301;57406;-75
2022/11/21 10:34:34;;;;;;;24.20;14.20;;;;;;;10.45;37.87;98868.58;105304;1294;59994;-77
2022/11/21 10:37:25;;;;;;;28.00;17.60;;;;;;;9.52;39.90;98874.64;105212;1300;71452;-76
2022/11/21 10:40:23;;;;;;;30.50;17.80;;;;;;;10.14;39.32;98870.15;105263;1301;68049;-75
2022/11/21 10:46:56;;;;;;;29.20;19.50;;;;;;;12.09;35.83;98865.22;105653;1289;57717;-77
2022/11/21 10:49:47;;;;;;;30.50;17.50;;;;;;;12.18;35.45;98867.84;105721;1293;60290;-76
2022/11/21 10:52:55;;;;;;;29.80;18.10;;;;;;;12.13;34.84;98870.17;104353;1288;1002157;-76
2022/11/21 10:56:14;;;;;;;28.30;16.70;;;;;;;11.62;35.24;98871.95;105741;1292;66870;-77
2022/11/21 10:59:23;;;;;;;27.90;17.80;;;;;;;10.92;36.06;98870.44;105751;1292;72890;-75
2022/11/21 11:02:16;;;;;;;28.10;17.30;;;;;;;10.81;36.73;98870.52;105733;1291;57327;-77
2022/11/21 11:05:21;;;;;;;26.80;16.30;;;;;;;10.56;36.70;98866.89;105870;1292;60109;-75
2022/11/21 11:08:13;;;;;;;29.60;17.60;;;;;;;10.86;37.23;98863.64;105837;1292;73120;-76
2022/11/21 11:11:12;;;;;;;23.30;14.40;;;;;;;10.84;36.68;98866.50;105855;1292;67613;-76
2022/11/21 11:14:10;;;;;;;29.40;16.90;;;;;;;10.24;37.54;98864.75;105823;1291;72606;-77
2022/11/21 11:16:58;;;;;;;28.10;17.20;;;;;;;9.80;38.21;98871.39;105753;1301;57749;-76
2022/11/21 11:20:02;;;;;;;25.80;15.30;;;;;;;9.57;38.98;98880.90;105837;1291;60376;-77
2022/11/21 11:22:50;;;;;;;27.50;16.00;;;;;;;8.35;40.79;98883.98;105854;1291;72905;-77
2022/11/21 11:25:37;;;;;;;32.00;17.40;;;;;;;7.04;43.33;98888.61;105840;1290;67687;-77
2022/11/21 11:28:34;;;;;;;30.80;16.00;;;;;;;5.60;46.60;98899.45;105838;1291;73712;-75
2022/11/21 11:31:22;;;;;;;32.70;17.20;;;;;;;4.23;50.08;98899.88;105734;1285;57402;-76
2022/11/21 11:34:13;;;;;;;32.50;18.50;;;;;;;3.31;53.13;98906.79;105858;1284;61252;-76
2022/11/21 11:37:15;;;;;;;33.60;16.70;;;;;;;2.72;55.58;98909.23;105689;1289;74354;-77
2022/11/21 11:40:34;;;;;;;37.10;18.20;;;;;;;2.36;57.31;98903.93;105694;1287;68877;-76
2022/11/21 11:47:40;;;;;;;35.60;15.80;;;;;;;1.52;61.18;98905.98;105596;1294;57558;-77
2022/11/21 11:50:42;;;;;;;36.10;16.40;;;;;;;1.40;62.47;98909.73;105668;1295;60037;-76
2022/11/21 11:53:42;;;;;;;37.80;18.30;;;;;;;1.14;63.93;98907.86;105689;1296;72810;-78
2022/11/21 11:56:36;;;;;;;31.20;15.50;;;;;;;0.88;64.67;98906.88;105677;1287;67539;-76
2022/11/21 11:59:33;;;;;;;38.20;19.40;;;;;;;0.79;65.58;98907.73;105672;1294;71505;-78
2022/11/21 12:02:44;;;;;;;34.70;16.80;;;;;;;0.74;66.62;98908.55;105706;1295;57224;-77
2022/11/21 12:05:36;;;;;;;39.40;18.00;;;;;;;0.57;67.15;98912.41;105696;1294;58542;-78
2022/11/21 12:08:39;;;;;;;43.80;20.00;;;;;;;0.53;67.97;98913.89;105683;1294;74202;-78
2022/11/21 12:12:14;;;;;;;32.10;15.70;;;;;;;0.68;67.50;98910.25;104973;1294;1002607;-77
2022/11/21 12:18:46;;;;;;;40.70;18.50;;;;;;;0.67;68.41;98910.83;105719;1294;57278;-77
2022/11/21 12:21:33;;;;;;;32.10;14.60;;;;;;;0.93;67.81;98911.68;105708;1294;60012;-77
2022/11/21 12:24:21;;;;;;;45.50;21.30;;;;;;;0.92;67.54;98915.21;105710;1295;71727;-76
2022/11/21 12:27:29;;;;;;;44.60;20.70;;;;;;;0.82;67.75;98915.77;105718;1288;67823;-78
2022/11/21 12:30:46;;;;;;;49.70;22.50;;;;;;;0.58;68.16;98912.20;104254;1294;1002851;-77
2022/11/21 12:33:46;;;;;;;41.80;20.20;;;;;;;0.49;68.41;98914.80;105727;1295;57302;-78
2022/11/21 12:36:52;;;;;;;46.10;21.40;;;;;;;0.43;68.79;98912.36;105721;1295;61407;-77
2022/11/21 12:39:59;;;;;;;45.30;19.70;;;;;;;0.32;69.27;98909.44;105737;1289;73029;-75
2022/11/21 12:42:49;;;;;;;40.90;20.10;;;;;;;0.21;69.53;98909.64;105027;1288;1002339;-77
2022/11/21 12:46:19;;;;;;;48.80;23.20;;;;;;;0.21;69.61;98905.16;105716;1295;72438;-77
2022/11/21 12:56:19;;;;;;;47.90;21.50;;;;;;;-0.33;70.79;98911.26;105748;1295;70515;-75
2022/11/21 12:59:12;;;;;;;49.60;22.80;;;;;;;-0.45;71.26;98916.58;105690;1295;68646;-77
2022/11/21 13:02:23;;;;;;;51.10;23.10;;;;;;;-0.50;71.63;98916.83;105744;1295;72581;-78
2022/11/21 13:05:23;;;;;;;50.00;24.20;;;;;;;-0.58;71.55;98919.66;105760;1294;57193;-76
2022/11/21 13:08:21;;;;;;;51.80;24.30;;;;;;;-0.70;71.83;98919.54;105651;1295;61144;-78
2022/11/21 13:12:00;;;;;;;47.60;21.70;;;;;;;-0.74;72.27;98918.89;105046;1294;1002245;-77
2022/11/21 13:15:22;;;;;;;56.20;25.80;;;;;;;-0.89;72.66;98922.94;105787;1294;67684;-77
2022/11/21 13:18:32;;;;;;;53.10;23.40;;;;;;;-0.98;72.84;98913.27;105761;1294;71320;-76
2022/11/21 13:21:42;;;;;;;52.50;23.40;;;;;;;-1.15;73.41;98918.77;105744;1284;57130;-79
2022/11/21 13:24:46;;;;;;;52.30;23.00;;;;;;;-1.32;74.27;98924.45;105719;1293;58996;-77
2022/11/21 13:27:42;;;;;;;56.60;24.70;;;;;;;-1.46;74.90;98920.56;105764;1295;71432;-75
2022/11/21 13:30:30;;;;;;;55.20;24.60;;;;;;;-1.60;75.79;98922.58;105713;1285;67782;-77
2022/11/21 13:33:38;;;;;;;59.70;26.20;;;;;;;-1.75;76.49;98927.27;104987;1288;1002673;-77